»·PEaware :: N762BB KBUR-KLAS

N762BB :: KBUR-KLAS

FLIGHT INFORMATION

Flight Status: Arrived
Operator: Privately registered:
United States
More flights under this callsign
Pilot: Slade E. (12022)
Aircraft: BEECH AIRCRAFT A90-E90 KING AIR
(BE9L)
More flights by this aircraft type
Origin: KBUR Bob Hope-Burbank
United States
Destination: KLAS McCarran Intl
United States
More flights between these airports :: More routes between these airports
Route: +VNY3 DAG CRESO4
File this flight plan on PilotEdge
Remarks:
Altitude:
(Current/Filed)
21,000ft
Speed:
(Current/Filed)
210kts
Departed: 24-Oct-20 01:41 PM
Arrived: 24-Oct-20 02:56 PM
Distance/Time
Traveled:
193nm/1:15
Distance/Time
To Go:
Arrived

Flight Plot

Page will automatically refresh every two minutes.

Flight plan parsing failed; only flown route is shown


Map Options




Map Legend


Flown Route
Filed Route
Departure Airport
Arrival Airport
Navaid (VOR, NDB)
Fix

Horizontal Profiles

Position Reports

Time Latitude Longitude Heading Altitude Ground
Speed
24-Oct-20 13:26 34.200208 -118.358845 280 733ft 0kts
24-Oct-20 13:27 34.200208 -118.358845 280 733ft 0kts
24-Oct-20 13:28 34.200208 -118.358845 280 733ft 0kts
24-Oct-20 13:29 34.200208 -118.358845 280 733ft 0kts
24-Oct-20 13:30 34.200208 -118.358845 280 733ft 0kts
24-Oct-20 13:31 34.200208 -118.358846 280 733ft 0kts
24-Oct-20 13:33 34.200208 -118.358846 280 733ft 0kts
24-Oct-20 13:34 34.200208 -118.358846 280 733ft 0kts
24-Oct-20 13:35 34.200536 -118.359226 347 733ft 5kts
24-Oct-20 13:36 34.202421 -118.358859 347 733ft 9kts
24-Oct-20 13:37 34.205357 -118.359677 347 733ft 11kts
24-Oct-20 13:38 34.208500 -118.360549 346 733ft 11kts
24-Oct-20 13:39 34.211697 -118.361412 357 733ft 11kts
24-Oct-20 13:40 34.210997 -118.360105 167 734ft 37kts
24-Oct-20 13:41 34.179600 -118.358206 222 1618ft 141kts
24-Oct-20 13:42 34.151519 -118.391318 225 3332ft 145kts
24-Oct-20 13:43 34.121003 -118.426722 226 3871ft 160kts
24-Oct-20 13:44 34.090667 -118.465929 228 3883ft 158kts
24-Oct-20 13:45 34.061212 -118.505090 226 3929ft 157kts
24-Oct-20 13:46 34.036721 -118.546910 281 4254ft 163kts
24-Oct-20 13:47 34.072544 -118.551023 35 5521ft 155kts
24-Oct-20 13:48 34.109210 -118.521379 34 6739ft 162kts
24-Oct-20 13:49 34.152447 -118.508238 12 7950ft 163kts
24-Oct-20 13:50 34.197427 -118.497905 10 9049ft 165kts
24-Oct-20 13:50 34.235396 -118.489659 10 9878ft 168kts
24-Oct-20 13:52 34.289379 -118.478266 9 11012ft 170kts
24-Oct-20 13:52 34.328183 -118.468506 12 11737ft 172kts
24-Oct-20 13:54 34.381417 -118.447912 50 12550ft 180kts
24-Oct-20 13:54 34.405974 -118.408008 49 13213ft 176kts
24-Oct-20 13:55 34.438664 -118.363133 48 14031ft 179kts
24-Oct-20 13:56 34.471100 -118.317354 48 14803ft 181kts
24-Oct-20 13:57 34.502165 -118.268570 52 15719ft 184kts
24-Oct-20 13:58 34.533515 -118.219604 52 16559ft 186kts
24-Oct-20 13:59 34.565219 -118.169666 52 17299ft 188kts
24-Oct-20 14:00 34.597007 -118.118892 52 17961ft 190kts
24-Oct-20 14:01 34.628059 -118.067261 70 18659ft 186kts
24-Oct-20 14:02 34.637107 -118.007300 81 19454ft 178kts
24-Oct-20 14:03 34.643891 -117.948867 82 20221ft 172kts
24-Oct-20 14:04 34.650288 -117.890974 82 20807ft 174kts
24-Oct-20 14:05 34.656910 -117.830134 82 21006ft 195kts
24-Oct-20 14:06 34.665123 -117.762033 74 21004ft 211kts
24-Oct-20 14:07 34.682414 -117.692591 72 21001ft 218kts
24-Oct-20 14:08 34.700504 -117.621752 72 21000ft 220kts
24-Oct-20 14:09 34.718731 -117.550431 72 21000ft 221kts
24-Oct-20 14:10 34.736989 -117.478828 72 21000ft 222kts
24-Oct-20 14:11 34.755357 -117.406598 72 21000ft 224kts
24-Oct-20 14:12 34.773787 -117.333920 73 21000ft 226kts
24-Oct-20 14:13 34.792251 -117.260917 73 21000ft 226kts
24-Oct-20 14:14 34.810734 -117.187624 73 21000ft 226kts
24-Oct-20 14:15 34.829186 -117.114248 73 21000ft 226kts
24-Oct-20 14:16 34.847840 -117.040943 64 20994ft 227kts
24-Oct-20 14:17 34.871310 -116.970365 73 21000ft 226kts
24-Oct-20 14:18 34.888616 -116.896659 74 21000ft 227kts
24-Oct-20 14:19 34.905861 -116.822613 74 21000ft 227kts
24-Oct-20 14:20 34.922993 -116.748825 74 21000ft 227kts
24-Oct-20 14:21 34.940103 -116.674868 74 21000ft 227kts
24-Oct-20 14:22 34.957211 -116.600745 74 21000ft 227kts
24-Oct-20 14:23 34.983580 -116.531046 61 21000ft 227kts
24-Oct-20 14:24 35.013446 -116.463478 61 21000ft 227kts
24-Oct-20 14:25 35.043505 -116.395669 61 21000ft 227kts
24-Oct-20 14:26 35.073662 -116.327558 61 20891ft 233kts
24-Oct-20 14:27 35.105572 -116.255331 61 19913ft 247kts
24-Oct-20 14:28 35.138499 -116.180640 61 18922ft 252kts
24-Oct-20 14:29 35.171849 -116.104826 61 17923ft 253kts
24-Oct-20 14:30 35.204887 -116.029566 61 16924ft 250kts
24-Oct-20 14:31 35.237528 -115.955041 61 15926ft 248kts
24-Oct-20 14:32 35.270125 -115.880448 61 14926ft 248kts
24-Oct-20 14:33 35.302434 -115.806356 61 13926ft 244kts
24-Oct-20 14:34 35.344399 -115.742308 47 12923ft 240kts
24-Oct-20 14:35 35.389334 -115.682170 47 11925ft 239kts
24-Oct-20 14:36 35.433996 -115.622485 47 10925ft 237kts
24-Oct-20 14:37 35.478179 -115.563364 47 10089ft 228kts
24-Oct-20 14:38 35.518812 -115.508942 47 10083ft 211kts
24-Oct-20 14:39 35.558798 -115.455283 47 10082ft 215kts
24-Oct-20 14:40 35.599363 -115.400776 47 10082ft 216kts
24-Oct-20 14:41 35.639858 -115.346317 47 10082ft 216kts
24-Oct-20 14:42 35.680394 -115.291708 47 10082ft 216kts
24-Oct-20 14:43 35.734933 -115.258304 21 9372ft 227kts
24-Oct-20 14:44 35.794100 -115.229235 21 8375ft 230kts
24-Oct-20 14:45 35.853289 -115.200129 21 7376ft 229kts
24-Oct-20 14:46 35.909889 -115.172292 21 7078ft 205kts
24-Oct-20 14:47 35.961325 -115.146985 21 7081ft 195kts
24-Oct-20 14:48 36.012860 -115.121584 21 6527ft 213kts
24-Oct-20 14:49 36.067198 -115.094784 21 6075ft 193kts
24-Oct-20 14:50 36.110495 -115.062497 41 5743ft 189kts
24-Oct-20 14:51 36.149612 -115.061645 280 5023ft 181kts
24-Oct-20 14:52 36.148327 -115.122280 236 4287ft 167kts
24-Oct-20 14:53 36.117041 -115.147974 194 3467ft 109kts
24-Oct-20 14:54 36.093713 -115.159838 206 2114ft 46kts
24-Oct-20 14:55 36.088640 -115.165129 204 2114ft 20kts
24-Oct-20 14:56 36.082212 -115.168829 204 2114ft 27kts
24-Oct-20 14:57 36.081044 -115.170999 193 2115ft 0kts
24-Oct-20 14:58 36.081045 -115.170999 193 2115ft 0kts
24-Oct-20 14:59 36.081045 -115.170999 193 2115ft 0kts
24-Oct-20 15:00 36.081045 -115.170999 193 2115ft 0kts
24-Oct-20 15:01 36.081045 -115.170999 193 2115ft 0kts

Navigation Log

Ident Type
Flight plan parsing failed, navigation log unavailable